Aberdeen, NJ

9:23 AM EDT on August 25, 2016 (GMT -0400)
APRSWXNET | | Change Station

Elev 134 ft 40.40 °N, 74.21 °W | Updated 23 minutes ago

Clear
Clear
76 °F
Feels Like 78 °F
N
0
Wind Variable Wind from WNW
Gusts 4.0 mph

Today
High -- | Low -- °F
--% Chance of Precip.
Yesterday
High -- | Low -- °F
Precip. -- in
Pressure 30.13 in
Visibility 10.0 miles
Clouds Clear
Heat Index 78 °F
Dew Point 65 °F
Humidity 68%
Rainfall in
Snow Depth Not available.
6:18 AM 7:39 PM
Last Quarter, 45% visible
METAR KLDJ 251315Z AUTO 00000KT 10SM CLR 25/16 A3013 RMK AO2 T02530160
Pressure 30.13 in
Visibility 10.0 miles
Clouds Clear
Heat Index 78 °F
Dew Point 65 °F
Humidity 68%
Rainfall in
Snow Depth Not available.
6:18 AM 7:39 PM
Last Quarter, 45% visible
METAR KLDJ 251315Z AUTO 00000KT 10SM CLR 25/16 A3013 RMK AO2 T02530160

10-Day Weather Forecast

Almanac

Astronomy

Aug. 25, 2016 Rise Set
Actual Time
Civil Twilight
Nautical Twilight
Astronomical Twilight
Moon
Length of Visible Light
Length of Day
Tomorrow will be .
, % of the Moon is Illuminated

Today's Extremes

State Highs State Lows

Community

WunderPhotos

Upload Photos

1,934,845 photos uploaded!

WunderBlog® & News

Nearby

Air Quality

  Air Quality AQ Index Pollutant
Not available.

Snow Depth

Station Depth Elevation

Earthquake Activity

City Distance Mag. Time & Date
Minimum magnitude displayed is 2.5.

Coastal Water Temperatures

Place Temperature

Stations

Nearby Weather Stations

Station Location Temp. Windchill Dew Point Humidity Wind Precip. Elev Updated Type
                   

Watches & Warnings

There are currently no watches in effect.